Latest Weather Observations for Batchelor

IDD60801

Issued at 1:35 pm CST Thursday 24 July 2014 (issued every 30 minutes, with the page automatically refreshed every 10 minutes)

About weather observations | Map of weather stations | Latest weather observations for NT | Other Formats
Station Details ID: 014272 Name: BATCHELOR AIRPORT Lat: -13.05 Lon: 131.03 Height: 104.0 m
Data from the previous 72 hours. | See also: Recent months at Batchelor
Date/Time
CST
Temp
°C
App
Temp
°C
Dew
Point
Rel
Hum
%
Delta-T
°C
Wind Press
QNH
hPa
Press
MSL
hPa
Rain
since 9 am
mm
Dir
 
Spd
km/h
Gust
km/h
Spd
kts
Gust
kts
24/01:30pm 29.9 28.8 11.9 33 10.5 NE 9 15 5 8 1013.3 1012.8 0.0
24/01:00pm 29.6 29.2 12.5 35 10.1 E 6 15 3 8 1013.8 - 0.0
24/12:30pm 28.5 27.8 12.0 36 9.6 SE 7 13 4 7 1014.5 1014.0 0.0
24/12:00pm 28.0 28.6 14.3 43 8.3 NNW 4 13 2 7 1015.0 1014.5 0.0
24/11:30am 27.3 27.3 15.3 48 7.3 NE 9 15 5 8 1015.5 1015.0 0.0
24/11:00am 26.9 27.2 15.9 51 6.8 NE 9 19 5 10 1015.8 - 0.0
24/10:30am 25.8 26.7 16.6 56 5.7 ENE 7 11 4 6 1016.0 1015.5 0.0
24/10:00am 24.0 25.3 18.4 71 3.5 E 9 13 5 7 1016.0 - 0.0
24/09:30am 21.1 21.2 17.5 80 2.2 ENE 13 20 7 11 1016.2 1015.7 0.0
24/09:00am 23.2 26.5 19.2 78 2.6 CALM 0 0 0 0 1015.7 1015.2 0.0
24/08:30am 20.3 23.7 19.3 94 0.6 CALM 0 0 0 0 1015.4 1014.9 0.0
24/08:00am 17.3 19.2 16.7 96 0.4 W 2 4 1 2 1015.2 - 0.0
24/07:30am 15.7 17.3 14.9 95 0.5 CALM 0 0 0 0 1014.7 1014.2 0.0
24/07:00am 15.4 16.9 14.6 95 0.5 CALM 0 0 0 0 1014.3 - 0.0
24/06:30am 14.8 15.5 13.5 92 0.7 W 2 2 1 1 1014.0 1013.5 0.0
24/06:00am 16.3 17.7 15.5 95 0.5 W 2 4 1 2 1013.6 1013.1 0.0
24/05:30am 15.8 16.9 14.7 93 0.6 W 2 4 1 2 1013.4 1012.9 0.0
24/05:00am 16.5 18.3 15.5 94 0.6 CALM 0 0 0 0 1013.3 - 0.0
24/04:30am 17.0 18.7 16.2 95 0.5 W 2 4 1 2 1013.4 1012.9 0.0
24/04:00am 16.9 18.9 15.9 94 0.6 CALM 0 0 0 0 1013.2 - 0.0
24/03:30am 16.8 18.6 15.5 92 0.8 CALM 0 0 0 0 1013.3 1012.8 0.0
24/03:00am 17.9 19.8 16.6 92 0.8 W 2 2 1 1 1013.5 1013.0 0.0
24/02:30am 18.4 20.1 17.2 93 0.7 W 4 4 2 2 1013.7 1013.2 0.0
24/02:00am 18.3 19.8 16.6 90 1.0 W 4 4 2 2 1013.7 - 0.0
24/01:30am 18.9 20.3 17.4 91 0.9 WSW 6 9 3 5 1013.8 1013.3 0.0
24/01:00am 18.4 19.6 16.9 91 0.9 WNW 6 7 3 4 1014.1 - 0.0
24/12:30am 18.4 20.4 16.9 91 0.9 NW 2 4 1 2 1014.2 1013.7 0.0
24/12:00am 18.1 19.0 15.2 83 1.7 NW 4 4 2 2 1014.3 1013.8 0.0
 
Date/Time
CST
Temp
°C
App
Temp
°C
Dew
Point
Rel
Hum
%
Delta-T
°C
Wind Press
QNH
hPa
Press
MSL
hPa
Rain
since 9 am
mm
Dir
 
Spd
km/h
Gust
km/h
Spd
kts
Gust
kts
23/11:30pm 19.3 21.5 16.5 84 1.7 CALM 0 0 0 0 1014.3 1013.8 0.0
23/11:00pm 20.3 21.8 16.7 80 2.2 NW 4 6 2 3 1014.2 - 0.0
23/10:30pm 20.9 22.2 17.1 79 2.3 NW 6 9 3 5 1014.1 1013.6 0.0
23/10:00pm 21.1 22.2 16.7 76 2.7 NW 6 7 3 4 1013.8 - 0.0
23/09:30pm 21.6 22.5 16.6 73 3.0 WNW 7 9 4 5 1013.6 1013.1 0.0
23/09:00pm 22.4 23.5 15.7 66 4.0 NW 4 7 2 4 1013.2 1012.7 0.0
23/08:30pm 23.6 24.6 16.4 64 4.4 WNW 6 7 3 4 1013.0 1012.5 0.0
23/08:00pm 23.1 23.3 14.7 59 5.0 WNW 7 15 4 8 1012.4 - 0.0
23/07:30pm 22.6 22.3 8.7 41 7.4 CALM 0 0 0 0 1012.0 1011.6 0.0
23/07:00pm 24.3 23.9 8.3 36 8.6 CALM 0 0 0 0 1011.7 - 0.0
23/06:30pm 26.8 26.3 7.8 30 10.2 CALM 0 0 0 0 1011.6 1011.1 0.0
23/06:00pm 29.8 28.5 5.8 22 12.7 E 2 6 1 3 1011.3 1010.8 0.0
23/05:30pm 30.5 28.9 6.4 22 12.9 S 4 9 2 5 1011.1 1010.6 0.0
23/05:00pm 30.8 28.9 6.6 22 13.0 SSE 6 15 3 8 1010.9 - 0.0
23/04:30pm 30.9 29.0 6.7 22 13.1 WSW 6 7 3 4 1010.8 1010.3 0.0
23/04:00pm 31.2 28.4 7.0 22 13.2 SE 11 17 6 9 1010.8 - 0.0
23/03:30pm 30.6 28.6 7.1 23 12.8 E 7 13 4 7 1010.7 1010.2 0.0
23/03:00pm 31.2 29.3 7.6 23 13.0 SE 7 13 4 7 1011.0 1010.5 0.0
23/02:30pm 30.8 28.4 8.5 25 12.4 ESE 11 22 6 12 1011.4 1010.9 0.0
23/02:00pm 30.3 28.8 9.2 27 11.8 SE 7 19 4 10 1012.0 - 0.0
23/01:30pm 30.1 27.6 9.6 28 11.6 ESE 13 20 7 11 1012.8 1012.3 0.0
23/01:00pm 28.8 25.9 9.5 30 10.8 ESE 15 28 8 15 1013.4 - 0.0
23/12:30pm 27.9 25.6 11.9 37 9.3 E 15 24 8 13 1014.0 1013.5 0.0
23/12:00pm 27.8 27.1 13.3 40 8.6 ESE 9 17 5 9 1014.8 1014.3 0.0
23/11:30am 26.6 26.2 14.0 46 7.5 ESE 9 20 5 11 1015.2 1014.7 0.0
23/11:00am 26.1 25.6 14.9 50 6.8 ESE 11 19 6 10 1015.7 - 0.0
23/10:30am 25.6 24.8 15.0 52 6.4 ESE 13 19 7 10 1016.1 1015.6 0.0
23/10:00am 25.1 25.0 16.0 57 5.6 E 11 17 6 9 1016.4 - 0.0
23/09:30am 24.2 25.3 16.7 63 4.6 ESE 6 11 3 6 1016.5 1016.0 0.0
23/09:00am 22.8 24.7 16.8 69 3.7 S 2 4 1 2 1016.3 1015.8 0.0
23/08:30am 20.6 22.5 16.8 79 2.3 S 2 4 1 2 1016.0 1015.5 0.0
23/08:00am 18.0 20.2 16.5 91 0.9 CALM 0 0 0 0 1015.7 - 0.0
23/07:30am 15.6 17.1 14.6 94 0.6 CALM 0 0 0 0 1015.5 1015.0 0.0
23/07:00am 15.1 16.2 13.6 91 0.8 CALM 0 0 0 0 1015.2 - 0.0
23/06:30am 14.5 15.3 12.5 88 1.1 CALM 0 0 0 0 1014.9 1014.4 0.0
23/06:00am 15.1 16.1 13.3 89 1.0 CALM 0 0 0 0 1014.5 1014.0 0.0
23/05:30am 16.1 17.7 14.8 92 0.8 CALM 0 0 0 0 1014.3 1013.8 0.0
23/05:00am 15.6 16.7 13.6 88 1.1 CALM 0 0 0 0 1014.3 - 0.0
23/04:30am 15.8 17.1 14.2 90 0.9 CALM 0 0 0 0 1014.3 1013.8 0.0
23/04:00am 16.2 17.5 14.2 88 1.1 CALM 0 0 0 0 1014.1 - 0.0
23/03:30am 16.3 17.3 14.3 88 1.1 S 2 2 1 1 1014.2 1013.7 0.0
23/03:00am 16.0 17.0 13.1 83 1.6 CALM 0 0 0 0 1014.4 1013.9 0.0
23/02:30am 16.6 17.5 14.1 85 1.4 S 2 4 1 2 1014.6 1014.1 0.0
23/02:00am 16.5 16.8 13.4 82 1.7 S 4 4 2 2 1015.0 - 0.0
23/01:30am 16.3 16.3 12.5 78 2.1 S 4 6 2 3 1015.2 1014.7 0.0
23/01:00am 16.5 17.2 12.1 75 2.4 CALM 0 0 0 0 1015.4 - 0.0
23/12:30am 16.3 16.8 11.5 73 2.6 CALM 0 0 0 0 1015.3 1014.8 0.0
23/12:00am 16.3 16.6 10.8 70 2.9 CALM 0 0 0 0 1015.3 1014.8 0.0
 
Date/Time
CST
Temp
°C
App
Temp
°C
Dew
Point
Rel
Hum
%
Delta-T
°C
Wind Press
QNH
hPa
Press
MSL
hPa
Rain
since 9 am
mm
Dir
 
Spd
km/h
Gust
km/h
Spd
kts
Gust
kts
22/11:30pm 17.3 17.6 10.9 66 3.5 CALM 0 0 0 0 1015.2 1014.7 0.0
22/11:00pm 18.0 18.3 10.9 63 3.8 CALM 0 0 0 0 1015.2 - 0.0
22/10:30pm 19.2 18.6 10.5 57 4.7 NW 4 6 2 3 1015.2 1014.7 0.0
22/10:00pm 19.4 18.5 10.7 57 4.7 NW 6 7 3 4 1015.0 - 0.0
22/09:30pm 20.6 19.7 9.2 48 6.1 N 4 7 2 4 1014.6 1014.1 0.0
22/09:00pm 23.4 22.0 9.4 41 7.6 N 7 11 4 6 1014.2 1013.7 0.0
22/08:30pm 22.8 21.0 8.1 39 7.8 N 7 11 4 6 1013.8 1013.3 0.0
22/08:00pm 19.5 19.1 8.2 48 5.9 CALM 0 0 0 0 1013.4 - 0.0
22/07:30pm 20.6 20.1 7.9 44 6.6 CALM 0 0 0 0 1013.0 1012.5 0.0
22/07:00pm 22.3 21.9 8.1 40 7.5 CALM 0 0 0 0 1012.5 - 0.0
22/06:30pm 25.3 24.8 7.9 33 9.3 CALM 0 0 0 0 1012.0 1011.6 0.0
22/06:00pm 27.4 26.3 6.8 27 10.9 ENE 2 4 1 2 1011.7 1011.3 0.0
22/05:30pm 29.2 26.7 4.6 21 12.7 E 7 13 4 7 1011.6 1011.1 0.0
22/05:00pm 29.4 26.0 4.1 20 13.0 ENE 11 17 6 9 1011.4 - 0.0
22/04:30pm 30.3 25.8 4.1 19 13.5 E 17 24 9 13 1011.5 1011.0 0.0
22/04:00pm 30.4 27.5 4.9 20 13.3 E 9 15 5 8 1011.5 - 0.0
22/03:30pm 29.9 26.5 5.9 22 12.7 E 13 19 7 10 1011.7 1011.3 0.0
22/03:00pm 29.9 25.5 4.5 20 13.2 E 17 24 9 13 1012.0 1011.6 0.0
22/02:30pm 31.1 26.0 4.0 18 14.0 E 20 33 11 18 1012.4 1012.0 0.0
22/02:00pm 31.0 27.0 4.7 19 13.8 ENE 15 26 8 14 1013.0 - 0.0
22/01:30pm 30.5 25.6 5.0 20 13.4 ESE 20 24 11 13 1013.6 1013.1 0.0
22/01:00pm 30.0 24.9 3.9 19 13.4 ESE 20 28 11 15 1014.2 - 0.0
22/12:30pm 29.9 25.4 5.9 22 12.7 ENE 19 30 10 16 1014.9 1014.4 0.0
22/12:00pm 28.8 24.0 7.4 26 11.6 E 22 33 12 18 1015.6 1015.1 0.0
22/11:30am 28.1 23.6 8.4 29 10.8 E 22 35 12 19 1016.1 1015.6 0.0
22/11:00am 26.7 23.7 10.8 37 9.0 E 17 24 9 13 1016.7 - 0.0
22/10:30am 26.5 24.9 13.9 45 7.5 ESE 15 22 8 12 1017.3 1016.8 0.0
22/10:00am 25.2 25.3 15.5 55 5.9 E 9 15 5 8 1017.3 - 0.0
22/09:30am 24.3 24.7 16.3 61 4.9 E 9 17 5 9 1017.6 1017.1 0.0
22/09:00am 21.8 23.6 17.4 76 2.7 SSE 4 7 2 4 1017.5 1017.0 -
22/08:30am 19.7 21.2 17.5 87 1.3 SSE 6 7 3 4 1017.3 1016.8 -
22/08:00am 17.3 19.4 16.2 93 0.7 CALM 0 0 0 0 1016.8 - -
22/06:30am 14.6 15.5 13.0 90 0.9 CALM 0 0 0 0 1015.7 1015.2 0.0
22/06:00am 16.0 17.6 15.0 94 0.6 CALM 0 0 0 0 1015.6 1015.1 0.0
22/05:30am 15.3 16.5 13.8 91 0.8 CALM 0 0 0 0 1015.4 1014.9 0.0
22/05:00am 15.5 16.7 13.7 89 1.0 CALM 0 0 0 0 1015.4 - 0.0
22/04:30am 16.6 18.4 15.5 93 0.6 CALM 0 0 0 0 1015.3 1014.8 0.0
22/04:00am 16.6 18.4 15.5 93 0.6 CALM 0 0 0 0 1015.2 - 0.0
22/03:30am 15.4 16.6 13.8 90 0.9 CALM 0 0 0 0 1015.1 1014.6 0.0
22/03:00am 16.4 18.1 15.1 92 0.8 CALM 0 0 0 0 1015.3 1014.8 0.0
22/02:30am 16.9 18.7 15.6 92 0.8 CALM 0 0 0 0 1015.4 1014.9 0.0
22/02:00am 16.7 18.4 15.1 90 0.9 CALM 0 0 0 0 1015.5 - 0.0
22/01:30am 16.7 18.4 15.1 90 0.9 CALM 0 6 0 3 1015.6 1015.1 0.0
22/01:00am 17.5 19.2 15.3 87 1.3 CALM 0 0 0 0 1015.7 - 0.0
22/12:30am 17.5 19.2 15.1 86 1.4 CALM 0 0 0 0 1015.8 1015.3 0.0
22/12:00am 18.6 20.6 16.9 90 1.0 N 2 6 1 3 1015.9 1015.4 0.0
 
Date/Time
CST
Temp
°C
App
Temp
°C
Dew
Point
Rel
Hum
%
Delta-T
°C
Wind Press
QNH
hPa
Press
MSL
hPa
Rain
since 9 am
mm
Dir
 
Spd
km/h
Gust
km/h
Spd
kts
Gust
kts
21/11:30pm 18.1 20.1 15.9 87 1.3 CALM 0 0 0 0 1015.6 1015.1 0.0
21/11:00pm 18.9 20.8 15.8 82 1.8 CALM 0 0 0 0 1015.7 - 0.0
21/10:30pm 18.9 19.4 14.0 73 2.8 NW 4 6 2 3 1015.9 1015.4 0.0
21/10:00pm 20.6 21.6 15.4 72 3.1 NW 4 4 2 2 1016.1 - 0.0
21/09:30pm 22.1 23.0 16.1 69 3.6 NNW 6 7 3 4 1016.0 1015.5 0.0
21/09:00pm 22.7 23.5 15.8 65 4.2 WNW 6 11 3 6 1015.7 1015.2 0.0
21/08:30pm 21.1 20.2 7.7 42 7.0 E 2 9 1 5 1015.2 1014.7 0.0
21/08:00pm 22.2 20.5 6.0 35 8.2 E 4 6 2 3 1014.6 - 0.0
21/07:30pm 23.5 22.0 4.9 30 9.3 SE 2 4 1 2 1014.3 1013.8 0.0
21/07:00pm 25.6 23.5 4.1 25 10.8 SE 4 6 2 3 1013.7 - 0.0
21/06:30pm 29.1 25.5 3.1 19 13.1 SE 11 15 6 8 1013.2 1012.7 0.0
21/06:00pm 30.4 27.3 3.4 18 13.8 SE 9 13 5 7 1012.8 1012.3 0.0
21/05:30pm 30.8 27.2 3.0 17 14.1 SSE 11 19 6 10 1012.3 1011.9 0.0
21/05:00pm 31.8 28.0 2.0 15 15.0 ESE 11 22 6 12 1012.1 - 0.0
21/04:30pm 31.5 27.3 1.8 15 14.8 ESE 13 24 7 13 1012.2 1011.8 0.0
21/04:00pm 31.9 28.3 3.0 16 14.8 SE 11 22 6 12 1012.2 - 0.0
21/03:30pm 31.6 27.2 2.7 16 14.7 ESE 15 26 8 14 1012.3 1011.9 0.0
21/03:00pm 31.7 27.3 2.8 16 14.7 ESE 15 24 8 13 1012.5 1012.1 0.0
21/02:30pm 31.8 28.1 4.6 18 14.3 ESE 13 24 7 13 1013.0 1012.5 0.0
21/02:00pm 30.8 27.3 5.3 20 13.5 ESE 13 20 7 11 1013.6 - 0.0

Other Formats:

Comma delimited format used in spreadsheet applications
http://www.bom.gov.au/fwo/IDD60801/IDD60801.94125.axf

JavaScript Object Notation format (JSON) in row-major order
http://www.bom.gov.au/fwo/IDD60801/IDD60801.94125.json